01:54
Airports
Links
Donate
Help keep this website running!
PayPal
Bitcoin
METAR
LICC 240120Z VRB02KT 8000 FEW040 09/08 Q1022
Current Weather Conditions at LICC
MVFR 01:20:00 24-11-17
Altimeter:30.18 hg
Temp:9.0°c 48°f
Dew point:8.0°c 46°f
Wind:2 knots, 2.3 mph, 1 m/s,
Variable direction
Visibility:4.97 statute miles
4000(FEW) A few
Past METAR reports
MVFR 00:50:00 24-11-17
Altimeter:30.18 hg
Temp:9.0°c 48°f
Dew point:8.0°c 46°f
Wind:2 knots, 2.3 mph, 1 m/s, from 210°
Visibility:4.97 statute miles
4000(FEW) A few
LICC 240050Z 21002KT 8000 FEW040 09/08 Q1022
MVFR 00:20:00 24-11-17
Altimeter:30.18 hg
Temp:9.0°c 48°f
Dew point:8.0°c 46°f
Wind:6 knots, 6.9 mph, 3 m/s, from 260°
Visibility:4.97 statute miles
4000(FEW) A few
LICC 240020Z 26006KT 8000 FEW040 09/08 Q1022
MVFR 23:50:00 23-11-17
Altimeter:30.18 hg
Temp:9.0°c 48°f
Dew point:8.0°c 46°f
Wind:3 knots, 3.5 mph, 2 m/s, from 260°
Visibility:4.35 statute miles
4000(FEW) A few
LICC 232350Z 26003KT 7000 FEW040 09/08 Q1022
IFR 23:20:00 23-11-17
Altimeter:30.18 hg
Temp:9.0°c 48°f
Dew point:8.0°c 46°f
Wind:4 knots, 4.6 mph, 2 m/s, from 250°
Visibility:2.49 statute miles
4000(FEW) A few
LICC 232320Z 25004KT 4000 BR FEW040 09/08 Q1022
MVFR 22:50:00 23-11-17
Altimeter:30.18 hg
Temp:9.0°c 48°f
Dew point:9.0°c 48°f
Wind:4 knots, 4.6 mph, 2 m/s, from 230°
Visibility:4.35 statute miles
4000(FEW) A few
LICC 232250Z 23004KT 7000 FEW040 09/09 Q1022
MVFR 22:20:00 23-11-17
Altimeter:30.18 hg
Temp:10.0°c 50°f
Dew point:9.0°c 48°f
Wind:4 knots, 4.6 mph, 2 m/s, from 240°
Visibility:3.11 statute miles
4000(FEW) A few
LICC 232220Z 24004KT 220V280 5000 BR FEW040 10/09 Q1022
TAF
TAF LICC 232300Z 2400/2424 VRB05KT 9999 FEW030 TEMPO 2400/2406 4000 BR BECMG 2408/2410 04010KT BECMG 2418/2420 VRB04KT
Forecast at LICC
00:00 24-11-17 to 08:00 24-11-17
Wind:5 Knots from 360°
Visibility:6.21 statute miles
3000FEW A few
TEMPO 00:00 24-11-17 to 06:00 24-11-17
BR
Visibility:2.49 statute miles
BECMG 08:00 24-11-17 to 18:00 24-11-17
Wind:10 Knots from 40°
Visibility:6.21 statute miles
3000FEW A few
BECMG 18:00 24-11-17 to 00:00 25-11-17
Wind:4 Knots from 360°
Visibility:6.21 statute miles
3000FEW A few